Time;durP1;ratioP1;P1;durP2;ratioP2;P2;SDS_P1;SDS_P2;PMS_P1;PMS_P2;Temp;Humidity;BMP_temperature;BMP_pressure;BME280_temperature;BME280_humidity;BME280_pressure;Samples;Min_cycle;Max_cycle;Signal;HPM_P1;HPM_P2
2024/03/03 00:00:45;;;;;;;10.50;4.70;;;;;;;5.25;55.07;100814.92;106561;1252;59236;-63
2024/03/03 00:03:13;;;;;;;10.40;3.60;;;;;;;5.24;55.04;100812.55;104815;1251;65182;-63
2024/03/03 00:05:40;;;;;;;16.10;4.00;;;;;;;5.20;54.97;100810.99;104444;1253;60474;-63
2024/03/03 00:08:08;;;;;;;11.00;4.40;;;;;;;5.15;55.00;100813.70;104428;1257;62832;-66
2024/03/03 00:10:36;;;;;;;11.30;5.50;;;;;;;5.08;55.10;100811.25;104396;1257;60538;-65
2024/03/03 00:13:04;;;;;;;12.10;4.70;;;;;;;5.02;55.14;100810.33;104530;1250;60456;-65
2024/03/03 00:15:32;;;;;;;9.70;4.40;;;;;;;4.96;55.12;100809.59;104391;1254;64965;-62
2024/03/03 00:17:59;;;;;;;16.90;5.50;;;;;;;4.90;55.07;100804.71;108901;1250;64417;-63
2024/03/03 00:20:28;;;;;;;12.60;6.20;;;;;;;4.81;55.02;100803.73;105958;1256;62522;-62
2024/03/03 00:22:56;;;;;;;19.60;4.10;;;;;;;4.73;55.17;100804.27;108926;1251;60225;-63
2024/03/03 00:25:23;;;;;;;10.00;4.20;;;;;;;4.67;55.13;100804.05;108890;1250;58961;-63
2024/03/03 00:27:51;;;;;;;16.80;5.80;;;;;;;4.61;55.23;100802.62;108902;1250;63858;-63
2024/03/03 00:30:19;;;;;;;11.60;5.10;;;;;;;4.54;55.27;100802.75;108934;1255;61643;-67
2024/03/03 00:32:46;;;;;;;21.50;10.70;;;;;;;4.49;55.34;100804.93;108876;1250;63816;-64
2024/03/03 00:35:14;;;;;;;10.90;3.60;;;;;;;4.47;55.46;100800.33;108863;1250;59010;-64
2024/03/03 00:37:42;;;;;;;9.10;2.90;;;;;;;4.50;55.46;100800.19;108266;1254;59215;-65
2024/03/03 00:40:10;;;;;;;10.10;3.50;;;;;;;4.57;55.39;100799.86;108914;1255;65799;-65
2024/03/03 00:42:38;;;;;;;11.00;3.40;;;;;;;4.67;55.40;100797.48;108909;1256;62265;-65
2024/03/03 00:45:06;;;;;;;11.60;4.00;;;;;;;4.76;55.36;100794.60;108918;1252;64795;-67
2024/03/03 00:47:34;;;;;;;10.20;4.50;;;;;;;4.84;55.30;100795.22;108883;1250;58908;-60
2024/03/03 00:50:02;;;;;;;11.10;5.00;;;;;;;4.91;55.26;100792.46;108892;1255;58718;-60
2024/03/03 00:52:30;;;;;;;16.50;6.30;;;;;;;4.95;55.21;100790.52;105988;1253;65361;-60
2024/03/03 00:54:58;;;;;;;16.90;5.80;;;;;;;4.96;55.11;100793.08;108798;1250;61532;-66
2024/03/03 00:57:25;;;;;;;13.40;4.50;;;;;;;4.97;55.07;100796.85;108885;1251;64328;-62
2024/03/03 00:59:53;;;;;;;10.20;5.30;;;;;;;4.97;54.98;100798.76;108842;1252;59602;-62
2024/03/03 01:02:20;;;;;;;9.40;4.10;;;;;;;4.94;54.88;100797.52;106966;1252;60542;-63
2024/03/03 01:04:51;;;;;;;11.00;4.00;;;;;;;4.88;54.84;100799.73;104465;1252;65154;-63
2024/03/03 01:07:19;;;;;;;16.80;4.90;;;;;;;4.83;54.96;100795.27;104591;1253;63070;-63
2024/03/03 01:09:46;;;;;;;11.00;5.10;;;;;;;4.79;54.92;100798.27;104386;1251;63984;-66
2024/03/03 01:12:14;;;;;;;11.20;4.60;;;;;;;4.73;54.94;100795.42;104483;1256;60530;-62
2024/03/03 01:14:42;;;;;;;9.10;4.60;;;;;;;4.67;55.07;100797.44;104495;1250;63155;-65
2024/03/03 01:17:09;;;;;;;12.30;4.10;;;;;;;4.62;55.27;100796.29;104451;1253;65000;-63
2024/03/03 01:19:37;;;;;;;12.40;5.70;;;;;;;4.60;55.49;100793.27;104388;1250;65030;-65
2024/03/03 01:22:05;;;;;;;12.80;5.30;;;;;;;4.61;55.68;100799.11;104411;1252;62573;-63
2024/03/03 01:24:33;;;;;;;18.70;5.70;;;;;;;4.63;55.82;100799.36;108888;1250;59900;-61
2024/03/03 01:27:02;;;;;;;17.30;5.10;;;;;;;4.65;55.82;100798.27;108926;1250;60180;-62
2024/03/03 01:29:30;;;;;;;10.30;5.50;;;;;;;4.65;55.86;100799.09;104720;1253;65294;-64
2024/03/03 01:31:58;;;;;;;14.00;5.00;;;;;;;4.65;55.94;100799.79;108645;1251;60234;-62
2024/03/03 01:34:25;;;;;;;12.60;4.10;;;;;;;4.64;56.03;100798.46;104398;1251;64515;-62
2024/03/03 01:36:53;;;;;;;13.30;3.40;;;;;;;4.68;56.11;100801.59;104467;1251;60511;-62
2024/03/03 01:39:21;;;;;;;9.00;2.90;;;;;;;4.76;56.05;100799.95;104306;1254;60626;-63
2024/03/03 01:41:48;;;;;;;12.80;2.90;;;;;;;4.86;56.15;100802.42;104397;1253;65508;-62
2024/03/03 01:44:16;;;;;;;8.20;3.40;;;;;;;4.96;56.21;100800.73;104282;1251;61514;-62
2024/03/03 01:46:44;;;;;;;11.10;4.20;;;;;;;5.07;56.31;100802.44;104374;1253;63792;-60
2024/03/03 01:49:12;;;;;;;15.30;4.20;;;;;;;5.21;56.54;100802.45;104299;1250;60785;-61
2024/03/03 01:51:40;;;;;;;11.20;3.80;;;;;;;5.32;56.49;100801.35;104479;1253;61367;-60
2024/03/03 01:54:08;;;;;;;15.90;4.60;;;;;;;5.39;56.56;100799.42;104297;1250;64336;-60
2024/03/03 01:56:36;;;;;;;16.00;7.50;;;;;;;5.45;56.40;100798.80;104321;1250;61496;-63
2024/03/03 01:59:03;;;;;;;12.40;4.60;;;;;;;5.48;56.22;100796.90;104324;1254;62952;-62
2024/03/03 02:01:31;;;;;;;15.20;5.80;;;;;;;5.45;56.13;100795.81;104653;1253;61251;-60
2024/03/03 02:03:59;;;;;;;13.50;5.30;;;;;;;5.44;56.03;100796.77;104426;1250;60312;-60
2024/03/03 02:06:29;;;;;;;9.50;3.90;;;;;;;5.43;56.11;100795.60;108912;1253;65035;-58
2024/03/03 02:08:57;;;;;;;21.20;5.30;;;;;;;5.42;56.10;100793.58;105147;1250;61518;-58
2024/03/03 02:11:25;;;;;;;12.80;4.40;;;;;;;5.42;56.08;100794.25;104369;1250;62962;-58
2024/03/03 02:13:53;;;;;;;10.70;4.80;;;;;;;5.41;56.03;100796.17;104338;1253;60463;-57
2024/03/03 02:16:21;;;;;;;15.30;6.60;;;;;;;5.39;56.05;100792.45;104103;1250;189999;-57
2024/03/03 02:19:37;;;;;;;11.70;4.40;;;;;;;5.08;57.02;100798.92;101266;1291;601282;-59
2024/03/03 02:22:05;;;;;;;10.50;4.10;;;;;;;5.46;56.01;100797.88;107919;1266;59115;-59
2024/03/03 02:24:32;;;;;;;17.30;4.10;;;;;;;5.57;55.75;100793.44;104767;1266;59399;-58
2024/03/03 02:27:01;;;;;;;10.90;3.50;;;;;;;5.66;55.80;100790.05;103353;1266;62149;-58
2024/03/03 02:29:30;;;;;;;12.70;3.30;;;;;;;5.74;55.74;100791.34;103331;1266;64206;-58
2024/03/03 02:31:57;;;;;;;7.80;3.50;;;;;;;5.84;55.71;100793.94;107929;1266;63838;-58
2024/03/03 02:34:25;;;;;;;15.80;5.00;;;;;;;5.91;55.72;100785.92;107947;1264;180091;-59
2024/03/03 02:36:53;;;;;;;9.50;3.50;;;;;;;5.95;55.72;100782.20;105127;1268;59467;-58
2024/03/03 02:39:20;;;;;;;11.20;4.30;;;;;;;5.95;55.65;100785.14;105220;1258;63434;-59
2024/03/03 02:41:48;;;;;;;9.90;4.50;;;;;;;5.95;55.57;100787.26;104263;1255;61979;-57
2024/03/03 02:44:16;;;;;;;13.20;4.40;;;;;;;5.95;55.56;100787.59;104286;1253;66408;-57
2024/03/03 02:46:43;;;;;;;13.50;4.80;;;;;;;5.94;55.49;100787.63;108820;1252;58381;-58
2024/03/03 02:49:11;;;;;;;10.40;3.40;;;;;;;5.94;55.47;100785.58;108722;1253;57415;-59
2024/03/03 02:51:39;;;;;;;8.30;2.90;;;;;;;5.93;55.45;100787.04;108875;1253;64210;-59
2024/03/03 02:54:06;;;;;;;10.70;3.30;;;;;;;5.90;55.39;100789.06;107282;1255;62580;-59
2024/03/03 02:56:34;;;;;;;11.70;5.00;;;;;;;5.88;55.39;100792.83;104477;1257;62519;-57
2024/03/03 02:59:02;;;;;;;11.00;4.40;;;;;;;5.86;55.30;100792.98;104317;1252;59735;-57
2024/03/03 03:01:29;;;;;;;8.70;3.50;;;;;;;5.83;55.33;100792.42;104304;1252;59794;-59
2024/03/03 03:03:57;;;;;;;14.00;4.50;;;;;;;5.82;55.38;100793.89;104330;1253;62912;-58
2024/03/03 03:06:25;;;;;;;12.60;4.80;;;;;;;5.86;55.21;100792.29;106800;1253;64037;-59
2024/03/03 03:08:52;;;;;;;11.20;4.40;;;;;;;5.92;55.05;100793.14;104326;1254;62634;-58
2024/03/03 03:11:20;;;;;;;10.30;4.10;;;;;;;6.00;54.93;100791.91;104369;1253;59661;-58
2024/03/03 03:13:48;;;;;;;16.00;5.10;;;;;;;6.07;54.83;100790.82;104320;1254;60772;-59
2024/03/03 03:16:15;;;;;;;16.40;7.10;;;;;;;6.10;54.76;100790.30;104341;1253;62923;-57
2024/03/03 03:18:43;;;;;;;12.20;5.80;;;;;;;6.12;54.69;100791.56;104317;1255;61263;-59
2024/03/03 03:21:11;;;;;;;15.10;5.80;;;;;;;6.12;54.59;100790.02;104336;1253;62536;-59
2024/03/03 03:23:39;;;;;;;13.80;4.80;;;;;;;6.11;54.50;100787.63;104294;1253;59639;-58
2024/03/03 03:26:06;;;;;;;11.00;4.80;;;;;;;6.07;54.43;100786.64;104295;1254;60326;-57
2024/03/03 03:28:34;;;;;;;10.20;4.00;;;;;;;6.01;54.39;100789.57;104275;1253;62978;-58
2024/03/03 03:31:02;;;;;;;12.20;4.70;;;;;;;5.95;54.30;100785.70;104293;1253;60250;-58
2024/03/03 03:33:30;;;;;;;9.20;3.90;;;;;;;5.90;54.41;100785.93;108511;1253;64529;-58
2024/03/03 03:35:58;;;;;;;12.90;4.50;;;;;;;5.85;54.48;100787.42;104300;1254;59734;-59
2024/03/03 03:38:25;;;;;;;8.70;3.70;;;;;;;5.82;54.52;100787.46;104991;1254;60609;-58
2024/03/03 03:40:53;;;;;;;9.40;3.70;;;;;;;5.78;54.64;100787.47;104504;1253;62942;-58
2024/03/03 03:43:21;;;;;;;10.00;3.80;;;;;;;5.76;54.64;100786.33;104296;1257;62044;-58
2024/03/03 03:45:48;;;;;;;14.60;4.60;;;;;;;5.74;54.63;100787.86;105134;1253;64064;-59
2024/03/03 03:48:20;;;;;;;11.00;4.00;;;;;;;5.71;54.72;100789.41;104225;1253;61961;-59
2024/03/03 03:50:48;;;;;;;8.40;3.20;;;;;;;5.73;54.69;100787.02;108782;1253;58416;-59
2024/03/03 03:53:15;;;;;;;8.50;4.70;;;;;;;5.82;54.59;100789.34;108950;1256;64184;-58
2024/03/03 03:55:43;;;;;;;10.40;3.50;;;;;;;5.90;54.49;100788.58;108726;1253;63789;-58
2024/03/03 03:58:10;;;;;;;8.30;3.10;;;;;;;6.00;54.32;100787.00;106291;1253;62880;-58
2024/03/03 04:00:38;;;;;;;9.20;4.80;;;;;;;6.09;54.16;100784.07;104335;1253;59584;-58
2024/03/03 04:03:06;;;;;;;12.50;4.30;;;;;;;6.15;53.99;100786.38;104316;1253;59788;-57
2024/03/03 04:05:34;;;;;;;12.30;5.90;;;;;;;6.19;53.84;100787.55;104351;1253;64303;-58
2024/03/03 04:08:01;;;;;;;10.30;3.30;;;;;;;6.23;53.78;100787.71;108680;1253;61531;-60
2024/03/03 04:10:29;;;;;;;9.20;3.70;;;;;;;6.25;53.47;100789.83;104669;1255;62547;-60
2024/03/03 04:12:57;;;;;;;10.50;4.00;;;;;;;6.24;53.37;100792.85;104180;1256;59699;-59
2024/03/03 04:15:25;;;;;;;8.00;3.70;;;;;;;6.21;53.24;100790.77;104335;1253;60082;-59
2024/03/03 04:17:53;;;;;;;9.30;4.00;;;;;;;6.16;53.20;100791.39;104339;1253;62917;-58
2024/03/03 04:20:20;;;;;;;12.40;4.00;;;;;;;6.11;53.28;100784.86;104506;1253;64517;-58
2024/03/03 04:22:48;;;;;;;18.80;5.60;;;;;;;6.07;53.25;100784.54;104385;1253;72584;-58
2024/03/03 04:25:16;;;;;;;10.10;3.50;;;;;;;6.03;53.24;100784.22;104300;1253;59661;-59
2024/03/03 04:27:44;;;;;;;8.50;3.10;;;;;;;6.00;53.20;100781.45;108832;1253;58892;-57
2024/03/03 04:30:11;;;;;;;12.20;3.80;;;;;;;5.99;53.08;100784.30;108761;1253;65070;-58
2024/03/03 04:32:39;;;;;;;12.90;4.70;;;;;;;5.98;53.08;100784.70;108812;1253;60288;-56
2024/03/03 04:35:07;;;;;;;8.10;3.60;;;;;;;5.96;53.01;100781.48;105505;1253;63858;-59
2024/03/03 04:37:35;;;;;;;11.10;3.80;;;;;;;5.93;53.00;100785.79;104716;1254;59641;-58
2024/03/03 04:40:03;;;;;;;9.10;3.60;;;;;;;5.90;52.99;100789.25;105625;1253;61665;-57
2024/03/03 04:42:31;;;;;;;10.80;4.30;;;;;;;5.89;52.91;100792.77;108810;1253;62986;-57
2024/03/03 04:44:59;;;;;;;8.90;2.80;;;;;;;5.88;52.80;100793.55;105798;1253;62141;-57
2024/03/03 04:47:26;;;;;;;7.30;2.60;;;;;;;5.91;52.70;100794.40;104431;1253;64302;-57
2024/03/03 04:49:54;;;;;;;8.20;3.40;;;;;;;5.99;52.54;100790.70;104371;1255;60809;-57
2024/03/03 04:52:22;;;;;;;8.70;3.10;;;;;;;6.07;52.54;100792.55;104334;1253;59769;-58
2024/03/03 04:54:49;;;;;;;10.50;4.10;;;;;;;6.13;52.49;100789.59;104734;1253;65156;-57
2024/03/03 04:57:17;;;;;;;11.60;3.80;;;;;;;6.12;52.57;100792.95;104309;1253;62447;-57
2024/03/03 04:59:45;;;;;;;11.10;4.30;;;;;;;6.12;52.50;100794.19;104326;1253;64682;-58
2024/03/03 05:02:12;;;;;;;8.80;3.00;;;;;;;6.12;52.21;100797.51;104383;1255;59766;-58
2024/03/03 05:04:40;;;;;;;8.90;3.80;;;;;;;6.10;52.16;100796.77;104263;1253;59928;-59
2024/03/03 05:07:07;;;;;;;9.70;3.70;;;;;;;6.08;52.15;100797.17;108713;1252;63090;-57
2024/03/03 05:09:37;;;;;;;7.40;3.40;;;;;;;6.06;52.03;100796.92;105550;1255;60248;-57
2024/03/03 05:12:06;;;;;;;9.10;3.80;;;;;;;6.02;51.97;100798.39;104266;1253;63614;-57
2024/03/03 05:14:34;;;;;;;9.80;4.20;;;;;;;5.98;51.97;100802.99;108746;1257;58061;-58
2024/03/03 05:17:01;;;;;;;15.70;5.00;;;;;;;5.93;51.94;100804.58;108914;1254;58093;-58
2024/03/03 05:19:29;;;;;;;8.10;3.80;;;;;;;5.90;52.01;100804.73;108814;1253;63327;-58
2024/03/03 05:21:56;;;;;;;8.00;3.00;;;;;;;5.89;51.98;100806.20;108866;1253;61623;-58
2024/03/03 05:24:24;;;;;;;9.60;4.30;;;;;;;5.86;52.03;100804.11;108680;1253;64892;-58
2024/03/03 05:26:55;;;;;;;39.40;4.40;;;;;;;5.85;52.12;100805.36;104891;1253;59591;-57
2024/03/03 05:29:22;;;;;;;9.70;3.40;;;;;;;5.84;52.23;100807.70;104410;1253;59685;-57
2024/03/03 05:31:50;;;;;;;8.70;3.80;;;;;;;5.82;52.11;100806.09;108783;1252;62940;-58
2024/03/03 05:34:17;;;;;;;8.30;3.30;;;;;;;5.81;52.00;100807.17;106206;1253;61540;-59
2024/03/03 05:36:45;;;;;;;6.60;3.40;;;;;;;5.80;52.03;100808.80;104348;1259;62546;-60
2024/03/03 05:39:15;;;;;;;9.30;3.30;;;;;;;5.78;52.05;100810.12;108747;1253;59300;-59
2024/03/03 05:41:42;;;;;;;11.40;4.30;;;;;;;5.77;52.10;100808.20;107022;1253;59767;-59
2024/03/03 05:44:10;;;;;;;7.80;2.50;;;;;;;5.80;51.83;100807.05;104249;1253;65161;-59
2024/03/03 05:46:38;;;;;;;6.80;2.40;;;;;;;5.86;51.49;100808.10;104491;1258;60267;-58
2024/03/03 05:49:05;;;;;;;5.40;1.80;;;;;;;5.93;51.42;100809.45;104276;1257;64273;-59
2024/03/03 05:51:33;;;;;;;10.50;3.80;;;;;;;6.03;51.35;100807.92;106573;1252;59553;-56
2024/03/03 05:54:01;;;;;;;11.80;2.60;;;;;;;6.12;51.24;100806.41;104716;1253;61764;-59
2024/03/03 05:56:29;;;;;;;7.70;2.90;;;;;;;6.16;51.03;100803.73;108854;1257;65177;-59
2024/03/03 05:58:56;;;;;;;6.00;2.80;;;;;;;6.19;50.79;100802.71;108532;1258;60260;-65
2024/03/03 06:01:24;;;;;;;6.60;2.60;;;;;;;6.19;50.55;100801.65;104391;1257;63065;-60
2024/03/03 06:03:52;;;;;;;7.20;3.10;;;;;;;6.19;50.47;100800.98;104268;1253;60170;-58
2024/03/03 06:06:19;;;;;;;7.20;3.20;;;;;;;6.18;50.36;100799.09;104292;1253;59775;-60
2024/03/03 06:08:50;;;;;;;7.30;3.00;;;;;;;6.18;50.28;100799.29;104187;1253;62895;-58
2024/03/03 06:11:20;;;;;;;7.20;3.60;;;;;;;6.16;50.18;100799.41;104299;1257;60615;-58
2024/03/03 06:13:48;;;;;;;8.10;3.20;;;;;;;6.11;50.26;100798.75;104245;1253;62531;-56
2024/03/03 06:16:16;;;;;;;5.90;2.30;;;;;;;6.09;50.07;100800.60;104286;1257;59741;-57
2024/03/03 06:18:44;;;;;;;6.70;2.80;;;;;;;6.08;50.09;100798.95;104405;1253;59743;-58
2024/03/03 06:21:12;;;;;;;7.40;2.10;;;;;;;6.08;50.10;100800.33;107049;1258;63101;-57
2024/03/03 06:23:41;;;;;;;7.90;2.20;;;;;;;6.08;49.86;100803.82;104344;1253;60358;-57
2024/03/03 06:26:08;;;;;;;6.60;2.70;;;;;;;6.05;49.92;100810.77;104511;1253;62584;-58
2024/03/03 06:28:36;;;;;;;5.80;2.40;;;;;;;6.03;49.92;100815.04;104245;1258;60556;-60
2024/03/03 06:31:03;;;;;;;8.00;2.60;;;;;;;6.03;49.85;100816.47;104317;1259;60472;-56
2024/03/03 06:33:31;;;;;;;6.10;2.70;;;;;;;6.02;49.84;100815.84;104235;1253;63841;-57
2024/03/03 06:35:58;;;;;;;7.20;3.20;;;;;;;6.01;49.83;100819.38;104417;1253;62022;-57
2024/03/03 06:38:26;;;;;;;5.90;1.80;;;;;;;6.00;49.85;100822.22;108682;1254;65462;-57
2024/03/03 06:40:54;;;;;;;6.60;2.30;;;;;;;6.00;49.86;100825.84;104812;1253;60391;-57
2024/03/03 06:43:21;;;;;;;6.60;2.30;;;;;;;6.00;49.88;100825.02;104434;1253;60505;-58
2024/03/03 06:45:49;;;;;;;10.60;4.40;;;;;;;5.98;49.91;100823.03;105084;1258;63703;-58
2024/03/03 06:48:17;;;;;;;5.60;2.00;;;;;;;5.96;49.88;100825.17;104423;1253;63599;-59
2024/03/03 06:50:44;;;;;;;6.60;2.80;;;;;;;5.96;49.97;100828.33;104211;1258;62531;-58
2024/03/03 06:53:12;;;;;;;5.80;1.90;;;;;;;5.97;50.08;100824.64;104370;1256;61064;-58
2024/03/03 06:55:40;;;;;;;5.70;2.40;;;;;;;5.99;50.02;100822.25;104778;1253;60368;-56
2024/03/03 06:58:08;;;;;;;6.80;2.30;;;;;;;6.03;49.87;100824.98;104501;1253;65208;-57
2024/03/03 07:00:36;;;;;;;7.90;2.70;;;;;;;6.10;49.62;100824.63;107292;1253;60311;-57
2024/03/03 07:03:13;;;;;;;5.60;2.00;;;;;;;6.15;49.35;100819.63;104419;1253;62517;-58
2024/03/03 07:05:41;;;;;;;7.60;1.90;;;;;;;6.20;49.02;100823.57;104227;1253;61301;-57
2024/03/03 07:08:09;;;;;;;6.50;1.90;;;;;;;6.22;48.86;100827.82;104299;1258;60490;-56
2024/03/03 07:10:36;;;;;;;7.00;2.00;;;;;;;6.24;48.75;100830.00;104211;1253;66649;-56
2024/03/03 07:13:04;;;;;;;6.40;2.30;;;;;;;6.24;48.56;100831.34;108826;1253;60259;-57
2024/03/03 07:15:32;;;;;;;9.80;3.10;;;;;;;6.27;48.47;100833.64;108829;1253;64311;-58
2024/03/03 07:17:59;;;;;;;6.20;2.00;;;;;;;6.32;48.47;100833.89;108808;1253;58519;-56
2024/03/03 07:20:27;;;;;;;4.10;1.80;;;;;;;6.39;48.45;100834.73;105953;1253;60451;-55
2024/03/03 07:22:54;;;;;;;6.60;2.10;;;;;;;6.48;48.24;100833.65;105643;1258;65457;-55
2024/03/03 07:25:22;;;;;;;8.30;3.80;;;;;;;6.59;47.98;100837.65;104219;1258;60330;-56
2024/03/03 07:27:50;;;;;;;6.60;1.90;;;;;;;6.65;47.81;100841.29;104237;1255;65635;-55
2024/03/03 07:30:18;;;;;;;5.50;2.00;;;;;;;6.69;47.60;100836.02;104297;1254;60973;-56
2024/03/03 07:32:49;;;;;;;4.90;2.00;;;;;;;6.74;47.57;100829.98;104295;1259;60479;-55
2024/03/03 07:35:17;;;;;;;5.60;1.80;;;;;;;6.80;47.58;100831.17;104277;1253;63735;-59
2024/03/03 07:37:45;;;;;;;6.10;2.30;;;;;;;6.89;47.49;100835.42;104390;1253;62531;-59
2024/03/03 07:40:15;;;;;;;4.20;1.80;;;;;;;6.94;47.17;100836.35;104201;1259;64801;-60
2024/03/03 07:42:43;;;;;;;8.20;2.30;;;;;;;6.97;46.96;100837.04;106040;1258;60463;-58
2024/03/03 07:45:10;;;;;;;6.30;1.90;;;;;;;7.01;46.92;100839.41;104475;1257;62559;-56
2024/03/03 07:47:38;;;;;;;5.70;1.90;;;;;;;7.04;46.91;100835.55;104819;1253;63748;-56
2024/03/03 07:50:06;;;;;;;7.30;1.90;;;;;;;7.07;46.81;100835.08;108789;1257;60271;-56
2024/03/03 07:52:34;;;;;;;7.40;4.10;;;;;;;7.09;46.72;100840.17;106737;1253;62552;-57
2024/03/03 07:55:02;;;;;;;6.90;2.90;;;;;;;7.13;46.77;100840.48;104823;1254;61057;-57
2024/03/03 07:57:29;;;;;;;7.10;2.20;;;;;;;7.17;46.69;100842.69;104977;1254;60591;-56
2024/03/03 07:59:57;;;;;;;5.50;2.10;;;;;;;7.21;46.61;100844.52;104964;1253;66606;-57
2024/03/03 08:02:25;;;;;;;5.90;1.90;;;;;;;7.25;46.48;100847.27;105014;1259;60595;-57
2024/03/03 08:04:54;;;;;;;8.00;3.90;;;;;;;7.27;46.46;100845.93;104856;1255;64367;-57
2024/03/03 08:07:22;;;;;;;4.90;1.60;;;;;;;7.30;46.40;100844.53;104887;1257;60374;-57
2024/03/03 08:09:51;;;;;;;7.60;2.10;;;;;;;7.33;46.22;100846.79;105409;1253;59583;-57
2024/03/03 08:12:19;;;;;;;4.70;2.30;;;;;;;7.37;46.19;100843.09;104263;1259;65162;-59
2024/03/03 08:14:46;;;;;;;9.40;2.40;;;;;;;7.43;46.20;100847.60;104209;1261;71232;-58
2024/03/03 08:17:14;;;;;;;7.60;2.30;;;;;;;7.51;46.15;100849.61;104232;1258;62548;-58
2024/03/03 08:19:42;;;;;;;5.60;1.70;;;;;;;7.57;45.90;100845.20;104367;1253;60544;-58
2024/03/03 08:22:09;;;;;;;6.90;2.60;;;;;;;7.61;45.49;100845.11;104233;1258;59355;-57
2024/03/03 08:24:37;;;;;;;5.50;1.50;;;;;;;7.65;45.30;100846.13;105495;1253;63710;-57
2024/03/03 08:27:05;;;;;;;8.00;3.80;;;;;;;7.69;45.23;100849.56;104374;1258;60510;-57
2024/03/03 08:29:32;;;;;;;3.40;1.30;;;;;;;7.74;45.04;100842.95;108808;1257;64441;-58
2024/03/03 08:32:00;;;;;;;5.00;1.80;;;;;;;7.79;44.77;100845.59;108604;1253;58880;-58
2024/03/03 08:34:32;;;;;;;6.40;2.30;;;;;;;7.84;44.58;100848.30;105507;1258;61269;-57
2024/03/03 08:37:00;;;;;;;9.20;4.10;;;;;;;7.88;44.62;100847.71;104215;1253;63729;-58
2024/03/03 08:39:28;;;;;;;4.90;1.80;;;;;;;7.92;44.65;100847.45;104454;1258;60458;-58
2024/03/03 08:41:55;;;;;;;4.60;1.60;;;;;;;7.96;44.50;100847.20;104343;1255;62625;-58
2024/03/03 08:44:23;;;;;;;9.20;4.40;;;;;;;7.99;44.39;100845.09;104240;1253;61149;-57
2024/03/03 08:46:51;;;;;;;6.90;2.10;;;;;;;8.02;44.35;100844.59;104235;1253;60541;-56
2024/03/03 08:49:19;;;;;;;6.60;2.00;;;;;;;8.04;44.37;100846.59;104401;1259;63743;-59
2024/03/03 08:51:48;;;;;;;4.40;2.00;;;;;;;8.07;44.14;100850.07;108812;1254;60288;-58
2024/03/03 08:54:15;;;;;;;6.40;1.80;;;;;;;8.06;44.06;100848.52;108648;1253;62575;-59
2024/03/03 08:56:44;;;;;;;9.80;4.40;;;;;;;8.08;44.09;100851.87;108802;1253;59858;-58
2024/03/03 08:59:11;;;;;;;4.40;2.00;;;;;;;8.13;44.08;100853.89;107223;1253;59247;-58
2024/03/03 09:01:39;;;;;;;6.10;2.10;;;;;;;8.16;44.05;100857.14;105067;1253;64967;-58
2024/03/03 09:04:07;;;;;;;8.90;3.60;;;;;;;8.21;44.07;100857.05;105038;1253;61657;-58
2024/03/03 09:06:40;;;;;;;6.00;1.70;;;;;;;8.26;44.04;100857.08;107100;1255;62520;-58
2024/03/03 09:09:10;;;;;;;5.90;1.90;;;;;;;8.33;44.14;100860.27;104259;1254;60413;-58
2024/03/03 09:11:38;;;;;;;10.50;3.90;;;;;;;8.41;43.94;100859.27;108839;1253;60626;-59
2024/03/03 09:14:06;;;;;;;5.80;2.10;;;;;;;8.48;43.73;100856.92;106479;1253;63912;-58
2024/03/03 09:16:33;;;;;;;5.10;2.10;;;;;;;8.54;43.63;100857.23;108687;1253;60963;-59
2024/03/03 09:19:01;;;;;;;7.40;3.80;;;;;;;8.59;43.56;100857.12;108813;1253;66246;-58
2024/03/03 09:21:28;;;;;;;9.40;2.60;;;;;;;8.64;43.45;100852.06;107474;1254;61375;-56
2024/03/03 09:23:56;;;;;;;8.80;4.40;;;;;;;8.68;43.35;100853.21;104280;1254;61141;-59
2024/03/03 09:26:24;;;;;;;5.20;2.00;;;;;;;8.72;43.22;100854.17;108503;1255;64047;-58
2024/03/03 09:28:51;;;;;;;8.10;2.20;;;;;;;8.73;42.83;100852.55;108640;1256;60277;-61
2024/03/03 09:31:19;;;;;;;8.50;4.00;;;;;;;8.67;42.68;100849.61;108590;1254;62541;-58
2024/03/03 09:33:47;;;;;;;4.70;1.40;;;;;;;8.60;42.64;100855.11;108633;1254;60195;-58
2024/03/03 09:36:14;;;;;;;11.20;4.30;;;;;;;8.55;42.89;100853.49;106149;1256;60556;-58
2024/03/03 09:38:42;;;;;;;7.00;2.30;;;;;;;8.55;43.02;100851.41;108579;1254;66142;-58
2024/03/03 09:41:09;;;;;;;7.10;2.40;;;;;;;8.55;42.77;100849.52;108647;1259;60523;-58
2024/03/03 09:43:38;;;;;;;8.60;4.40;;;;;;;8.51;42.99;100848.33;105190;1256;62696;-57
2024/03/03 09:46:05;;;;;;;6.40;2.10;;;;;;;8.54;43.29;100849.92;108618;1254;60001;-57
2024/03/03 09:48:36;;;;;;;7.70;4.10;;;;;;;8.58;43.16;100848.44;104454;1257;61417;-59
2024/03/03 09:51:04;;;;;;;5.20;1.70;;;;;;;8.65;43.25;100847.48;104213;1255;67453;-58
2024/03/03 09:53:32;;;;;;;8.40;3.80;;;;;;;8.70;43.07;100849.77;104062;1261;61978;-58
2024/03/03 09:56:01;;;;;;;5.90;1.90;;;;;;;8.72;42.76;100849.77;104490;1256;62616;-56
2024/03/03 09:58:28;;;;;;;5.90;2.50;;;;;;;8.69;42.71;100848.21;104021;1261;60551;-58
2024/03/03 10:00:56;;;;;;;11.10;4.60;;;;;;;8.68;42.74;100849.36;108463;1256;58813;-59
2024/03/03 10:03:24;;;;;;;7.90;2.80;;;;;;;8.72;42.98;100843.35;108621;1254;65995;-57
2024/03/03 10:05:51;;;;;;;6.00;2.50;;;;;;;8.79;42.94;100844.30;108522;1260;61578;-59
2024/03/03 10:08:19;;;;;;;7.70;4.00;;;;;;;8.86;42.88;100846.48;105771;1255;62521;-56
2024/03/03 10:10:47;;;;;;;7.20;2.70;;;;;;;8.91;42.88;100842.43;104062;1264;60440;-54
2024/03/03 10:13:17;;;;;;;7.20;4.00;;;;;;;8.99;42.86;100840.89;106092;1254;60556;-55
2024/03/03 10:15:47;;;;;;;7.00;1.90;;;;;;;9.09;42.68;100839.67;108541;1254;65156;-55
2024/03/03 10:18:16;;;;;;;7.60;4.40;;;;;;;9.22;42.44;100837.98;108584;1254;61860;-57
2024/03/03 10:20:48;;;;;;;5.50;2.30;;;;;;;9.33;42.17;100836.51;105186;1257;62547;-55
2024/03/03 10:23:20;;;;;;;10.10;4.70;;;;;;;9.41;41.94;100836.66;104203;1258;62667;-55
2024/03/03 10:25:55;;;;;;;6.60;2.50;;;;;;;9.49;41.87;100836.48;104205;1259;61375;-55
2024/03/03 10:28:23;;;;;;;11.90;4.80;;;;;;;9.57;41.85;100837.20;108571;1256;64028;-56
2024/03/03 10:31:09;;;;;;;6.80;1.80;;;;;;;9.61;41.81;100833.05;107750;1260;60540;-55
2024/03/03 10:33:37;;;;;;;7.70;4.60;;;;;;;9.65;41.69;100829.26;108077;1260;62517;-57
2024/03/03 10:36:06;;;;;;;7.10;2.00;;;;;;;9.68;41.60;100830.83;104217;1256;61103;-54
2024/03/03 10:38:35;;;;;;;9.40;4.80;;;;;;;9.65;41.68;100830.31;108622;1254;59030;-56
2024/03/03 10:41:04;;;;;;;6.40;2.00;;;;;;;9.59;41.63;100829.17;108633;1254;65047;-56
2024/03/03 10:43:31;;;;;;;9.30;4.40;;;;;;;9.50;41.59;100828.17;105498;1256;63765;-55
2024/03/03 10:45:59;;;;;;;5.60;2.60;;;;;;;9.42;41.88;100828.71;104237;1259;62883;-52
2024/03/03 10:48:27;;;;;;;8.20;4.20;;;;;;;9.37;42.09;100827.85;104256;1256;62284;-56
2024/03/03 10:50:54;;;;;;;4.90;2.00;;;;;;;9.36;42.18;100827.23;104106;1255;60532;-58
2024/03/03 10:53:22;;;;;;;9.20;4.40;;;;;;;9.34;42.10;100826.66;103948;1261;63943;-58
2024/03/03 10:55:49;;;;;;;8.90;4.40;;;;;;;9.34;41.97;100824.42;108677;1254;60283;-57
2024/03/03 10:58:17;;;;;;;5.70;2.20;;;;;;;9.33;42.00;100823.41;105164;1254;63990;-58
2024/03/03 11:00:45;;;;;;;9.60;4.40;;;;;;;9.34;42.21;100817.05;104155;1261;61628;-61
2024/03/03 11:03:13;;;;;;;8.00;2.70;;;;;;;9.39;42.15;100817.24;107960;1254;59018;-59
2024/03/03 11:05:41;;;;;;;7.50;4.20;;;;;;;9.46;41.97;100814.13;104547;1259;63787;-58
2024/03/03 11:08:11;;;;;;;8.10;4.30;;;;;;;9.52;41.80;100809.83;104807;1259;62070;-58
2024/03/03 11:10:39;;;;;;;7.50;2.40;;;;;;;9.61;41.76;100805.89;104855;1260;63852;-59
2024/03/03 11:13:07;;;;;;;7.40;2.90;;;;;;;9.69;41.41;100802.92;107967;1259;60554;-59
2024/03/03 11:15:37;;;;;;;6.80;4.30;;;;;;;9.72;40.99;100804.23;104908;1254;62458;-62
2024/03/03 11:18:09;;;;;;;9.60;4.70;;;;;;;9.72;40.90;100804.11;104618;1254;66043;-58
2024/03/03 11:20:39;;;;;;;4.90;2.50;;;;;;;9.69;40.77;100802.90;108535;1253;60269;-61
2024/03/03 11:23:41;;;;;;;7.30;4.40;;;;;;;9.63;40.59;100803.80;108757;1253;62624;-60
2024/03/03 11:26:14;;;;;;;6.60;2.30;;;;;;;9.57;40.89;100801.83;108453;1259;58840;-60